This is the latest recevied weather packets stored in our database for station/object MB7IWY-13. If no packets are shown the sender has not sent any weather packets the latest 10 day(s).
| Time | Temp. | Humidity | Pressure | Rain* | Wind** | Luminosity | Snow |
|---|---|---|---|---|---|---|---|
| 1777114442 | 17.22° C | 40% | 1043 hPa | 0 mm | - | 0 W/m² | - |
| 1777113362 | 17.22° C | 40% | 1043 hPa | 0 mm | - | 0 W/m² | - |
| 1777110302 | 16.11° C | 46% | 1043 hPa | 0 mm | - | 0 W/m² | - |
| 1777108684 | 15.56° C | 48% | 1042 hPa | 0 mm | - | 0 W/m² | - |
| 1777105082 | 11.67° C | 58% | 1043 hPa | 0 mm | - | 0 W/m² | - |
| 1777098422 | 6.67° C | 68% | 1043 hPa | 0 mm | - | 0 W/m² | - |
| 1777097882 | 6.67° C | 68% | 1043 hPa | 0 mm | - | 0 W/m² | - |
| 1777095362 | 6.67° C | 68% | 1043 hPa | 0 mm | - | 0 W/m² | - |
| 1777090703 | 6.67° C | 68% | 1043 hPa | 0 mm | - | 0 W/m² | - |
| 1777090142 | 6.67° C | 68% | 1043 hPa | 0 mm | - | 0 W/m² | - |
| 1777087082 | 7.22° C | 65% | 1043 hPa | 0 mm | - | 0 W/m² | - |
| 1777085642 | 7.22° C | 63% | 1043 hPa | 0 mm | - | 0 W/m² | - |
| 1777084022 | 7.22° C | 64% | 1043 hPa | 0 mm | - | 0 W/m² | - |
| 1777078442 | 9.44° C | 53% | 1044 hPa | 0 mm | - | 0 W/m² | - |
| 1777077923 | 9.44° C | 53% | 1044 hPa | 0 mm | - | 0 W/m² | - |
| 1777077362 | 9.44° C | 53% | 1044 hPa | 0 mm | - | 0 W/m² | - |
| 1777075202 | 9.44° C | 52% | 1044 hPa | 0 mm | - | 0 W/m² | - |
| 1777073762 | 9.44° C | 52% | 1044 hPa | 0 mm | - | 0 W/m² | - |
| 1777070162 | 9.44° C | 53% | 1045 hPa | 0 mm | - | 0 W/m² | - |
| 1777068002 | 10.56° C | 46% | 1045 hPa | 0 mm | - | 0 W/m² | - |
| 1777064042 | 12.78° C | 42% | 1045 hPa | 0 mm | - | 0 W/m² | - |
| 1777061882 | 13.33° C | 39% | 1045 hPa | 0 mm | - | 0 W/m² | - |
| 1777059362 | 13.89° C | 39% | 1045 hPa | 0 mm | - | 0 W/m² | - |
| 1777058822 | 15.56° C | 33% | 1045 hPa | 0 mm | - | 0 W/m² | - |
| 1777054682 | 17.78° C | 29% | 1045 hPa | 0 mm | - | 0 W/m² | - |
* Rain latest hour (hover to see other rain measurements)
** Current wind speed in m/s (hover to see current wind gust speed)